Language selection

Features

My Weather Profile Weather Topics  | 

West Coast Vancouver Island South: Past 24 Hour Conditions

 

Halibut Bank - 46146

12:00 PM PST 29 January 2020Buoy position: 49.34N 123.72W
Disclaimer

This table is a summary of hourly weather conditions for the past 24 hours.
Please note that these observations might not always be representative of weather conditions over their associated marine area.

Date / Time
(PST)
Wind(knots) Wave height(m) Wave period(s) Pressure(kPa) Air tempC) Water tempC)
29 January 2020
12:00 E 13 gust 16 0.9 4.0 101.6 8 8
11:00 E 16 gust 17 0.9 4.0 101.5 8 7
10:00 ESE 17 gust 22 0.8 4.0 101.5 8 7
9:00 E 19 gust 22 0.7 4.0 101.4 8 7
8:00 E 17 gust 19 0.7 4.0 101.5 8 7
7:00 ESE 17 gust 22 0.7 4.0 101.5 8 7
6:00 ESE 16 gust 19 0.9 4.0 101.6 8 7
5:00 E 19 gust 23 0.8 3.0 101.6 8 7
4:00 E 22 gust 25 0.6 3.0 101.7 8 7
3:00 E 19 gust 23 0.4 3.0 101.8 8 7
2:00 E 16 gust 19 0.4 2.0 102.0 8 7
1:00 E 13 gust 16 0.3 2.0 102.0 8 7
0:00 E 13 gust 17 0.3 2.0 102.1 8 7
28 January 2020
23:00 E 13 gust 16 0.3 6.0 102.1 7 7
22:00 E 13 gust 16 0.2 2.0 102.2 7 7
21:00 E 10 gust 12 0.1 2.0 102.2 7 7
20:00 E 10 gust 12 0.1 5.0 102.1 7 7
19:00 ESE 8 gust 8 0.1 7.0 102.1 7 7
18:00 ESE 4 gust 6 0.1 6.0 102.1 7 7
17:00 E 2 gust 2 0.1 3.0 102.0 7 7
16:00 calm 0.1 4.0 101.9 8 8
15:00 SW 4 gust 4 0.2 4.0 101.9 8 8
14:00 S 4 gust 4 0.1 6.0 101.8 7 8
13:00 S 4 gust 4 0.2 6.0 101.8 7 8
12:00 N/A N/A N/A N/A N/A N/A

Zoom-in to make a selection

Map of Pacific - Georgia Basin marine weather areas Sentry Shoal - 46131 Halibut Bank - 46146 La Perouse Bank - 46206 Discovery Island Esquimalt Harbour Kelp Reefs Malahat Race Rocks Lightstation Saturna Island Sheringham Point University of Victoria Victoria Gonzales Victoria Int'l Airport Ballenas Islands Campbell River Airport Comox Airport Entrance Island Fanny Island Nanaimo Airport Sisters Islets Estevan Point Port Alberni Tofino Airport Grief Point Howe Sound - Pam Rocks Powell River Airport Sechelt Squamish Airport Point Atkinson Sand Heads Lightstation Tsawwassen Ferry Terminal Vancouver Int'l Airport Vancouver Harbour West Vancouver
Legend:
buoy Buoy
land station Land Station

Pacific - Georgia Basin Area

Another Region

What we are doing

Date modified: